createdAt,value
2022-10-16T00:00:40.154Z,44.15
2022-10-16T00:03:07.297Z,48.40
2022-10-16T00:05:34.713Z,47.20
2022-10-16T00:08:01.478Z,49.42
2022-10-16T00:10:28.278Z,53.42
2022-10-16T00:12:55.035Z,50.65
2022-10-16T00:15:21.798Z,50.92
2022-10-16T00:17:48.685Z,51.83
2022-10-16T00:20:15.613Z,57.55
2022-10-16T00:22:42.412Z,60.17
2022-10-16T00:25:10.355Z,56.58
2022-10-16T00:27:37.235Z,53.00
2022-10-16T00:30:04.472Z,48.97
2022-10-16T00:32:31.393Z,52.67
2022-10-16T00:34:58.149Z,52.70
2022-10-16T00:37:25.011Z,53.38
2022-10-16T00:39:51.803Z,56.93
2022-10-16T00:42:19.066Z,55.33
2022-10-16T00:44:53.425Z,56.50
2022-10-16T00:47:35.330Z,58.90
2022-10-16T00:50:33.061Z,63.93
2022-10-16T00:53:00.371Z,64.90
2022-10-16T00:55:31.212Z,55.40
2022-10-16T00:57:58.989Z,62.42
2022-10-16T01:00:26.859Z,61.65
2022-10-16T01:02:58.048Z,62.05
2022-10-16T01:05:25.677Z,63.17
2022-10-16T01:08:06.079Z,52.28
2022-10-16T01:10:35.937Z,60.42
2022-10-16T01:13:05.482Z,64.07
2022-10-16T01:15:35.440Z,63.70
2022-10-16T01:18:26.990Z,59.28
2022-10-16T01:20:58.251Z,57.38
2022-10-16T01:23:56.077Z,59.33
2022-10-16T01:27:00.416Z,54.72
2022-10-16T01:29:49.314Z,48.28
2022-10-16T01:32:23.838Z,50.05
2022-10-16T01:35:06.077Z,50.92
2022-10-16T01:38:06.255Z,53.80
2022-10-16T01:40:34.401Z,53.63
2022-10-16T01:43:09.159Z,53.33
2022-10-16T01:45:35.963Z,54.20
2022-10-16T01:48:08.353Z,47.30
2022-10-16T01:50:37.257Z,50.58
2022-10-16T01:53:04.154Z,49.00
2022-10-16T01:55:35.322Z,49.88
2022-10-16T01:58:02.561Z,50.67
2022-10-16T02:00:29.342Z,44.25
2022-10-16T02:02:56.342Z,49.55
2022-10-16T02:05:39.013Z,51.08
2022-10-16T02:08:05.915Z,52.28
2022-10-16T02:10:33.177Z,47.53
2022-10-16T02:13:20.338Z,47.60
2022-10-16T02:15:47.211Z,41.35
2022-10-16T02:18:14.037Z,46.05
2022-10-16T02:20:56.990Z,42.22
2022-10-16T02:23:44.385Z,45.50
2022-10-16T02:26:13.849Z,46.95
2022-10-16T02:28:46.773Z,53.75
2022-10-16T02:31:14.468Z,51.47
2022-10-16T02:33:41.774Z,54.80
2022-10-16T02:36:08.677Z,57.22
2022-10-16T02:38:35.495Z,52.30
2022-10-16T02:41:02.381Z,51.90
2022-10-16T02:43:30.496Z,47.83
2022-10-16T02:45:57.300Z,52.35
2022-10-16T02:48:25.064Z,56.90
2022-10-16T02:50:52.160Z,47.30
2022-10-16T02:53:19.155Z,39.75
2022-10-16T02:55:45.914Z,22.23
2022-10-16T02:58:12.674Z,23.05
2022-10-16T03:00:39.574Z,27.65
2022-10-16T03:03:06.407Z,30.57
2022-10-16T03:05:35.298Z,35.93
2022-10-16T03:08:03.206Z,41.20
2022-10-16T03:10:29.962Z,43.58
2022-10-16T03:13:00.138Z,37.03
2022-10-16T03:15:27.049Z,52.35
2022-10-16T03:17:53.823Z,38.08
2022-10-16T03:20:20.621Z,44.03
2022-10-16T03:22:47.476Z,48.97
2022-10-16T03:25:14.260Z,57.17
2022-10-16T03:27:42.019Z,57.42
2022-10-16T03:30:09.628Z,56.20
2022-10-16T03:35:10.254Z,67.25
2022-10-16T03:37:37.219Z,58.93
2022-10-16T03:40:04.829Z,76.20
2022-10-16T03:42:31.638Z,64.90
2022-10-16T03:44:58.430Z,67.90
2022-10-16T03:47:27.465Z,68.53
2022-10-16T03:49:54.440Z,58.83
2022-10-16T03:52:21.228Z,61.75
2022-10-16T03:54:47.978Z,61.73
2022-10-16T03:57:14.739Z,71.37
2022-10-16T03:59:41.621Z,75.27
2022-10-16T04:02:08.383Z,81.40
2022-10-16T04:04:35.155Z,81.43
2022-10-16T04:07:01.969Z,94.63
2022-10-16T04:09:28.739Z,88.97
2022-10-16T04:11:56.499Z,96.05
2022-10-16T04:14:23.526Z,86.85
2022-10-16T04:16:50.339Z,92.40
2022-10-16T04:19:17.314Z,83.25
2022-10-16T04:21:44.087Z,77.40
2022-10-16T04:24:12.480Z,74.73
2022-10-16T04:26:39.461Z,67.57
2022-10-16T04:29:07.182Z,73.63
2022-10-16T04:31:34.474Z,68.82
2022-10-16T04:34:01.227Z,71.20
2022-10-16T04:36:29.306Z,70.30
2022-10-16T04:38:56.343Z,73.60
2022-10-16T04:41:23.110Z,82.07
2022-10-16T04:43:49.980Z,90.25
2022-10-16T04:46:16.791Z,73.72
2022-10-16T04:48:43.577Z,74.55
2022-10-16T04:51:10.378Z,70.87
2022-10-16T04:53:37.521Z,67.45
2022-10-16T04:56:04.501Z,71.55
2022-10-16T04:58:31.274Z,61.40
2022-10-16T05:00:58.087Z,65.27
2022-10-16T05:03:24.936Z,66.63
2022-10-16T05:05:51.768Z,57.97
2022-10-16T05:08:18.589Z,66.43
2022-10-16T05:10:45.866Z,69.13
2022-10-16T05:13:12.704Z,68.60
2022-10-16T05:15:39.604Z,70.38
2022-10-16T05:18:06.381Z,67.22
2022-10-16T05:20:33.227Z,62.40
2022-10-16T05:23:00.048Z,75.50
2022-10-16T05:25:26.936Z,77.00
2022-10-16T05:27:53.863Z,71.60
2022-10-16T05:30:21.226Z,80.93
2022-10-16T05:32:49.447Z,84.45
2022-10-16T05:35:17.009Z,75.78
2022-10-16T05:37:43.793Z,82.25
2022-10-16T05:40:11.030Z,82.70
2022-10-16T05:42:38.321Z,80.07
2022-10-16T05:45:06.820Z,74.55
2022-10-16T05:47:33.603Z,67.47
2022-10-16T05:50:00.366Z,73.63
2022-10-16T05:52:28.433Z,72.87
2022-10-16T05:54:55.193Z,59.33
2022-10-16T05:57:21.986Z,70.32
2022-10-16T05:59:48.794Z,80.60
2022-10-16T06:02:17.126Z,86.22
2022-10-16T06:04:44.902Z,95.47
2022-10-16T06:07:11.902Z,82.97
2022-10-16T06:09:38.722Z,77.32
2022-10-16T06:12:05.553Z,68.73
2022-10-16T06:14:32.470Z,75.33
2022-10-16T06:16:59.273Z,72.07
2022-10-16T06:19:26.042Z,68.40
2022-10-16T06:21:52.838Z,56.67
2022-10-16T06:24:19.752Z,55.13
2022-10-16T06:26:46.504Z,54.45
2022-10-16T06:29:13.336Z,55.97
2022-10-16T06:31:40.123Z,50.67
2022-10-16T06:34:10.407Z,50.30
2022-10-16T06:36:37.366Z,52.27
2022-10-16T06:39:04.592Z,50.57
2022-10-16T06:41:31.471Z,49.70
2022-10-16T06:43:58.266Z,53.00
2022-10-16T06:46:25.469Z,57.27
2022-10-16T06:48:52.369Z,54.13
2022-10-16T06:51:20.520Z,54.25
2022-10-16T06:54:06.904Z,51.80
2022-10-16T06:56:34.001Z,55.33
2022-10-16T06:59:01.559Z,58.22
2022-10-16T07:01:28.565Z,62.67
2022-10-16T07:03:55.447Z,67.63
2022-10-16T07:06:23.765Z,63.20
2022-10-16T07:08:50.722Z,69.57
2022-10-16T07:11:19.266Z,66.70
2022-10-16T07:13:50.772Z,62.20
2022-10-16T07:16:23.314Z,68.63
2022-10-16T07:18:50.497Z,65.82
2022-10-16T07:21:21.558Z,69.63
2022-10-16T07:23:54.991Z,67.10
2022-10-16T07:26:22.143Z,61.67
2022-10-16T07:28:49.210Z,55.70
2022-10-16T07:31:16.917Z,55.38
2022-10-16T07:33:45.389Z,55.25
2022-10-16T07:36:16.650Z,55.78
2022-10-16T07:38:44.750Z,48.25
2022-10-16T07:41:17.559Z,44.95
2022-10-16T07:43:51.419Z,45.90
2022-10-16T07:46:18.614Z,42.63
2022-10-16T07:48:48.012Z,36.90
2022-10-16T07:51:22.509Z,34.90
2022-10-16T07:53:49.559Z,34.08
2022-10-16T07:56:17.021Z,34.35
2022-10-16T07:58:43.934Z,31.83
2022-10-16T08:01:12.293Z,31.00
2022-10-16T08:03:39.193Z,28.42
2022-10-16T08:06:06.090Z,30.65
2022-10-16T08:08:32.886Z,30.90
2022-10-16T08:10:59.654Z,31.20
2022-10-16T08:13:27.499Z,27.45
2022-10-16T08:15:54.804Z,26.02
2022-10-16T08:18:21.573Z,25.52
2022-10-16T08:20:48.346Z,29.17
2022-10-16T08:23:15.262Z,25.65
2022-10-16T08:25:42.308Z,25.77
2022-10-16T08:28:09.790Z,18.25
2022-10-16T08:30:36.632Z,18.30
2022-10-16T08:33:03.635Z,19.33
2022-10-16T08:35:30.492Z,17.27
2022-10-16T08:37:57.286Z,18.45
2022-10-16T08:40:28.886Z,18.45
2022-10-16T08:43:13.800Z,15.60
2022-10-16T08:45:46.621Z,12.43
2022-10-16T08:48:16.540Z,13.65
2022-10-16T08:50:43.369Z,14.73
2022-10-16T08:53:16.060Z,14.55
2022-10-16T08:55:51.935Z,11.23
2022-10-16T08:58:20.417Z,10.40
2022-10-16T09:00:51.936Z,10.73
2022-10-16T09:03:40.308Z,12.98
2022-10-16T09:06:07.038Z,12.00
2022-10-16T09:09:07.502Z,10.20
2022-10-16T09:11:49.270Z,13.93
2022-10-16T09:14:37.428Z,13.82
2022-10-16T09:17:40.503Z,11.77
2022-10-16T09:20:21.488Z,17.42
2022-10-16T09:22:48.263Z,9.77
2022-10-16T09:25:21.014Z,11.77
2022-10-16T09:27:56.932Z,14.18
2022-10-16T09:30:33.309Z,8.93
2022-10-16T09:33:00.150Z,7.65
2022-10-16T09:35:36.517Z,12.93
2022-10-16T09:38:03.334Z,15.18
2022-10-16T09:40:32.592Z,14.50
2022-10-16T09:43:20.871Z,7.43
2022-10-16T09:45:57.906Z,12.48
2022-10-16T09:48:25.275Z,8.88
2022-10-16T09:51:02.568Z,12.40
2022-10-16T09:53:43.543Z,13.88
2022-10-16T09:56:21.978Z,11.40
2022-10-16T09:58:58.769Z,15.93
2022-10-16T10:01:30.286Z,11.93
2022-10-16T10:04:02.115Z,16.08
2022-10-16T10:06:38.952Z,8.25
2022-10-16T10:09:20.865Z,12.18
2022-10-16T10:11:57.469Z,9.95
2022-10-16T10:14:41.065Z,14.35
2022-10-16T10:17:07.851Z,13.65
2022-10-16T10:19:40.490Z,13.93
2022-10-16T10:22:20.948Z,13.57
2022-10-16T10:24:59.818Z,13.10
2022-10-16T10:27:46.807Z,16.42
2022-10-16T10:30:26.725Z,11.85
2022-10-16T10:33:23.117Z,9.73
2022-10-16T10:36:11.737Z,13.00
2022-10-16T10:38:47.734Z,12.70
2022-10-16T10:41:20.369Z,22.63
2022-10-16T10:44:04.468Z,12.70
2022-10-16T10:46:33.390Z,18.50
2022-10-16T10:49:18.489Z,17.80
2022-10-16T10:51:55.779Z,12.57
2022-10-16T10:54:34.729Z,19.40
2022-10-16T10:57:31.885Z,17.20
2022-10-16T11:00:05.907Z,14.48
2022-10-16T11:02:43.291Z,13.05
2022-10-16T11:05:41.751Z,16.05
2022-10-16T11:08:39.982Z,14.38
2022-10-16T11:11:24.559Z,12.35
2022-10-16T11:13:51.337Z,18.65
2022-10-16T11:16:22.816Z,14.40
2022-10-16T11:19:14.178Z,12.45
2022-10-16T11:21:51.381Z,16.77
2022-10-16T11:24:28.107Z,21.95
2022-10-16T11:26:55.198Z,17.58
2022-10-16T11:29:25.951Z,14.95
2022-10-16T11:31:55.382Z,17.67
2022-10-16T11:34:44.391Z,13.20
2022-10-16T11:37:15.402Z,14.57
2022-10-16T11:39:43.320Z,13.45
2022-10-16T11:42:14.538Z,19.13
2022-10-16T11:45:06.111Z,12.43
2022-10-16T11:50:34.234Z,20.38
2022-10-16T11:53:19.769Z,18.20
2022-10-16T11:55:47.268Z,11.27
2022-10-16T11:59:03.289Z,16.98
2022-10-16T12:01:34.392Z,13.75
2022-10-16T12:04:34.957Z,18.88
2022-10-16T12:07:10.346Z,18.55
2022-10-16T12:09:40.740Z,14.43
2022-10-16T12:12:36.970Z,13.38
2022-10-16T12:15:35.235Z,13.77
2022-10-16T12:18:22.853Z,19.55
2022-10-16T12:21:00.041Z,11.63
2022-10-16T12:23:27.071Z,11.40
2022-10-16T12:25:58.360Z,14.10
2022-10-16T12:28:29.213Z,13.15
2022-10-16T12:31:00.793Z,14.90
2022-10-16T12:33:35.077Z,19.40
2022-10-16T12:36:04.607Z,13.55
2022-10-16T12:38:51.878Z,10.20
2022-10-16T12:41:30.953Z,13.77
2022-10-16T12:43:58.053Z,14.68
2022-10-16T12:46:45.146Z,12.02
2022-10-16T12:49:14.669Z,10.68
2022-10-16T12:51:42.073Z,11.63
2022-10-16T12:54:16.997Z,12.82
2022-10-16T12:57:05.271Z,10.07
2022-10-16T12:59:43.988Z,14.68
2022-10-16T13:02:37.419Z,18.42
2022-10-16T13:05:24.482Z,9.25
2022-10-16T13:07:57.142Z,10.23
2022-10-16T13:10:34.587Z,10.35
2022-10-16T13:13:07.179Z,12.27
2022-10-16T13:15:40.549Z,7.15
2022-10-16T13:18:14.195Z,11.25
2022-10-16T13:20:53.166Z,14.40
2022-10-16T13:23:34.254Z,13.70
2022-10-16T13:26:15.731Z,10.35
2022-10-16T13:28:42.580Z,11.00
2022-10-16T13:31:22.231Z,8.85
2022-10-16T13:33:51.709Z,11.50
2022-10-16T13:36:23.395Z,10.00
2022-10-16T13:38:50.186Z,11.30
2022-10-16T13:41:19.191Z,10.98
2022-10-16T13:43:52.735Z,5.05
2022-10-16T13:46:23.587Z,7.15
2022-10-16T13:49:01.021Z,7.80
2022-10-16T13:51:28.091Z,10.77
2022-10-16T13:53:56.278Z,11.18
2022-10-16T13:56:24.230Z,5.13
2022-10-16T13:59:01.804Z,12.20
2022-10-16T14:01:33.783Z,10.18
2022-10-16T14:04:08.434Z,10.27
2022-10-16T14:06:35.311Z,6.63
2022-10-16T14:09:10.262Z,8.20
2022-10-16T14:11:52.600Z,13.85
2022-10-16T14:14:20.434Z,11.50
2022-10-16T14:16:47.608Z,5.10
2022-10-16T14:19:26.299Z,10.48
2022-10-16T14:21:53.315Z,7.55
2022-10-16T14:24:33.884Z,10.07
2022-10-16T14:27:01.064Z,8.48
2022-10-16T14:29:28.747Z,9.50
2022-10-16T14:32:00.024Z,10.45
2022-10-16T14:34:28.509Z,15.02
2022-10-16T14:36:56.367Z,7.68
2022-10-16T14:39:23.851Z,5.70
2022-10-16T14:41:53.387Z,6.13
2022-10-16T14:44:20.538Z,10.38
2022-10-16T14:46:47.342Z,10.38
2022-10-16T14:49:16.301Z,7.93
2022-10-16T14:51:44.930Z,8.15
2022-10-16T14:54:16.597Z,7.78
2022-10-16T14:56:57.190Z,7.30
2022-10-16T14:59:31.253Z,13.15
2022-10-16T15:01:58.122Z,12.75
2022-10-16T15:04:24.968Z,7.32
2022-10-16T15:06:51.877Z,9.65
2022-10-16T15:09:18.673Z,10.75
2022-10-16T15:11:45.483Z,7.47
2022-10-16T15:16:46.894Z,10.98
2022-10-16T15:19:13.814Z,8.70
2022-10-16T15:21:41.114Z,8.35
2022-10-16T15:24:10.640Z,6.18
2022-10-16T15:26:37.438Z,5.45
2022-10-16T15:29:04.223Z,5.45
2022-10-16T15:31:31.047Z,7.88
2022-10-16T15:33:59.293Z,5.53
2022-10-16T15:36:29.866Z,6.93
2022-10-16T15:38:56.927Z,6.72
2022-10-16T15:41:23.781Z,5.53
2022-10-16T15:43:51.164Z,8.57
2022-10-16T15:46:22.094Z,5.47
2022-10-16T15:48:49.723Z,8.60
2022-10-16T15:51:16.663Z,5.35
2022-10-16T15:53:44.550Z,6.50
2022-10-16T15:56:12.076Z,4.63
2022-10-16T15:58:38.963Z,8.00
2022-10-16T16:01:12.413Z,4.35
2022-10-16T16:03:41.466Z,5.65
2022-10-16T16:06:09.494Z,5.88
2022-10-16T16:08:36.541Z,5.13
2022-10-16T16:11:07.976Z,6.22
2022-10-16T16:13:34.886Z,5.85
2022-10-16T16:16:01.831Z,6.57
2022-10-16T16:18:29.656Z,6.05
2022-10-16T16:20:56.688Z,5.80
2022-10-16T16:23:23.609Z,4.80
2022-10-16T16:26:08.878Z,6.38
2022-10-16T16:28:35.800Z,4.70
2022-10-16T16:31:02.929Z,6.75
2022-10-16T16:33:31.945Z,4.15
2022-10-16T16:36:00.025Z,3.47
2022-10-16T16:38:27.187Z,7.53
2022-10-16T16:40:56.250Z,3.78
2022-10-16T16:43:27.902Z,5.10
2022-10-16T16:45:55.794Z,2.97
2022-10-16T16:48:22.715Z,5.60
2022-10-16T16:50:49.580Z,3.78
2022-10-16T16:53:16.610Z,5.85
2022-10-16T16:55:43.425Z,8.10
2022-10-16T16:58:10.360Z,3.92
2022-10-16T17:00:37.151Z,4.93
2022-10-16T17:03:04.009Z,4.95
2022-10-16T17:05:30.882Z,2.88
2022-10-16T17:07:57.680Z,4.80
2022-10-16T17:10:24.490Z,5.28
2022-10-16T17:12:51.386Z,2.67
2022-10-16T17:15:18.258Z,3.65
2022-10-16T17:17:46.195Z,7.03
2022-10-16T17:20:12.947Z,4.78
2022-10-16T17:22:40.370Z,5.20
2022-10-16T17:25:08.389Z,3.67
2022-10-16T17:27:36.402Z,4.40
2022-10-16T17:30:05.191Z,4.22
2022-10-16T17:32:31.997Z,4.35
2022-10-16T17:34:58.823Z,2.97
2022-10-16T17:37:25.703Z,6.63
2022-10-16T17:39:52.616Z,5.38
2022-10-16T17:42:19.465Z,6.60
2022-10-16T17:44:46.387Z,3.67
2022-10-16T17:47:13.247Z,5.72
2022-10-16T17:49:40.126Z,6.78
2022-10-16T17:52:07.386Z,3.47
2022-10-16T17:54:34.259Z,5.18
2022-10-16T17:57:01.142Z,5.95
2022-10-16T17:59:28.501Z,7.60
2022-10-16T18:01:55.399Z,6.68
2022-10-16T18:04:22.293Z,7.28
2022-10-16T18:06:49.189Z,5.53
2022-10-16T18:09:18.200Z,8.23
2022-10-16T18:11:45.222Z,6.15
2022-10-16T18:14:14.125Z,9.10
2022-10-16T18:16:40.988Z,5.57
2022-10-16T18:19:07.840Z,10.38
2022-10-16T18:21:34.691Z,6.40
2022-10-16T18:24:01.480Z,8.98
2022-10-16T18:26:28.616Z,4.90
2022-10-16T18:28:57.852Z,4.53
2022-10-16T18:31:26.332Z,7.63
2022-10-16T18:33:53.986Z,6.68
2022-10-16T18:36:26.506Z,6.47
2022-10-16T18:38:53.338Z,8.55
2022-10-16T18:41:20.140Z,11.45
2022-10-16T18:43:47.359Z,14.73
2022-10-16T18:46:17.739Z,14.20
2022-10-16T18:48:44.689Z,21.58
2022-10-16T18:51:21.505Z,24.58
2022-10-16T18:53:50.130Z,30.17
2022-10-16T18:56:17.776Z,32.75
2022-10-16T18:58:46.131Z,34.45
2022-10-16T19:01:16.386Z,34.25
2022-10-16T19:03:43.710Z,37.60
2022-10-16T19:06:12.034Z,43.28
2022-10-16T19:08:38.995Z,49.33
2022-10-16T19:11:16.306Z,51.17
2022-10-16T19:13:43.789Z,61.63
2022-10-16T19:16:21.017Z,62.22
2022-10-16T19:18:53.006Z,64.00
2022-10-16T19:21:19.876Z,65.38
2022-10-16T19:23:46.654Z,60.40
2022-10-16T19:26:15.171Z,66.25
2022-10-16T19:28:42.228Z,68.70
2022-10-16T19:31:11.757Z,71.70
2022-10-16T19:33:38.906Z,72.25
2022-10-16T19:36:12.479Z,72.57
2022-10-16T19:38:39.688Z,63.38
2022-10-16T19:41:14.049Z,38.47
2022-10-16T19:43:41.111Z,71.05
2022-10-16T19:46:13.498Z,73.63
2022-10-16T19:48:40.460Z,83.10
2022-10-16T19:51:07.484Z,84.03
2022-10-16T19:53:35.239Z,82.63
2022-10-16T19:56:02.086Z,85.38
2022-10-16T19:58:28.867Z,86.30
2022-10-16T20:00:55.759Z,84.25
2022-10-16T20:03:22.528Z,79.50
2022-10-16T20:05:57.000Z,81.60
2022-10-16T20:08:23.934Z,84.13
2022-10-16T20:10:51.692Z,83.10
2022-10-16T20:13:19.615Z,85.25
2022-10-16T20:15:46.605Z,87.22
2022-10-16T20:18:13.648Z,86.13
2022-10-16T20:20:40.917Z,94.03
2022-10-16T20:23:08.007Z,103.75
2022-10-16T20:25:38.769Z,97.32
2022-10-16T20:28:06.016Z,105.45
2022-10-16T20:30:39.997Z,93.95
2022-10-16T20:33:08.470Z,102.70
2022-10-16T20:35:43.063Z,104.30
2022-10-16T20:38:10.279Z,112.78
2022-10-16T20:40:37.923Z,121.10
2022-10-16T20:43:06.859Z,119.32
2022-10-16T20:45:33.736Z,129.15
2022-10-16T20:48:00.546Z,121.72
2022-10-16T20:50:30.505Z,133.32
2022-10-16T20:52:58.150Z,141.07
2022-10-16T20:55:25.126Z,122.55
2022-10-16T20:57:55.046Z,119.97
2022-10-16T21:00:22.276Z,103.57
2022-10-16T21:02:52.421Z,107.20
2022-10-16T21:05:19.582Z,102.35
2022-10-16T21:07:46.399Z,107.03
2022-10-16T21:10:13.259Z,97.60
2022-10-16T21:12:40.057Z,97.97
2022-10-16T21:15:14.849Z,91.22
2022-10-16T21:17:42.337Z,102.75
2022-10-16T21:20:10.374Z,106.07
2022-10-16T21:22:37.235Z,115.22
2022-10-16T21:25:04.961Z,111.60
2022-10-16T21:27:37.355Z,114.07
2022-10-16T21:30:05.872Z,101.15
2022-10-16T21:32:34.757Z,107.25
2022-10-16T21:35:01.720Z,116.55
2022-10-16T21:37:28.547Z,116.95
2022-10-16T21:39:56.304Z,104.35
2022-10-16T21:42:23.069Z,91.80
2022-10-16T21:44:49.987Z,110.30
2022-10-16T21:47:16.778Z,116.57
2022-10-16T21:49:43.582Z,113.10
2022-10-16T21:52:10.651Z,114.22
2022-10-16T21:54:37.522Z,112.40
2022-10-16T21:59:36.179Z,102.75
2022-10-16T22:02:03.360Z,112.20
2022-10-16T22:04:30.191Z,120.10
2022-10-16T22:06:57.012Z,122.55
2022-10-16T22:09:23.804Z,122.30
2022-10-16T22:11:51.067Z,108.95
2022-10-16T22:14:19.020Z,99.68
2022-10-16T22:16:45.943Z,126.07
2022-10-16T22:19:13.665Z,125.15
2022-10-16T22:21:41.246Z,128.00
2022-10-16T22:24:08.325Z,123.30
2022-10-16T22:26:35.546Z,118.93
2022-10-16T22:29:02.734Z,118.30
2022-10-16T22:31:29.687Z,127.40
2022-10-16T22:33:57.376Z,129.68
2022-10-16T22:36:24.157Z,125.88
2022-10-16T22:38:51.043Z,120.70
2022-10-16T22:41:17.868Z,104.00
2022-10-16T22:43:45.764Z,104.38
2022-10-16T22:46:14.438Z,102.97
2022-10-16T22:48:41.309Z,100.88
2022-10-16T22:51:08.439Z,108.97
2022-10-16T22:53:35.280Z,109.18
2022-10-16T22:56:02.273Z,113.53
2022-10-16T22:58:29.078Z,105.32
2022-10-16T23:03:22.824Z,103.00
2022-10-16T23:05:49.710Z,121.55
2022-10-16T23:08:17.534Z,117.03
2022-10-16T23:10:45.640Z,109.10
2022-10-16T23:13:12.716Z,118.40
2022-10-16T23:15:40.640Z,107.30
2022-10-16T23:18:07.695Z,129.27
2022-10-16T23:20:34.583Z,128.20
2022-10-16T23:23:01.377Z,133.00
2022-10-16T23:25:29.228Z,128.27
2022-10-16T23:27:56.195Z,123.75
2022-10-16T23:30:24.006Z,131.82
2022-10-16T23:32:50.786Z,130.07
2022-10-16T23:35:17.730Z,129.27
2022-10-16T23:37:44.539Z,145.00
2022-10-16T23:40:11.806Z,148.68
2022-10-16T23:42:38.553Z,139.65
2022-10-16T23:45:06.012Z,127.65
2022-10-16T23:47:32.833Z,98.68
2022-10-16T23:49:59.619Z,118.78
2022-10-16T23:52:26.361Z,114.55
2022-10-16T23:54:53.169Z,111.95
2022-10-16T23:57:19.919Z,119.85
2022-10-16T23:59:46.687Z,115.72
